Aviation Digital Data Service (ADDS)

Output produced by METARs form (0227 UTC 21 November 2017)
found at http://www.aviationweather.gov/adds/metars/
 
UAAA 210200Z 00000MPS 2700 BR NSC M07/M09 Q1031 R05L/CLRD65 NOSIG
TAF UAAA 202300Z 2100/2124 04005MPS 3000 BR FU SCT020 BKN100 TX05/2109Z TNM09/2101Z 
     TEMPO 2100/2104 0300 FZFG SCT002 
     BECMG 2112/2113 14005MPS 1500 
     TEMPO 2112/2124 0500 FZFG SCT003
       
UACC 210200Z 20003MPS CAVOK M12/M13 Q1035 R22/0///70 NOSIG RMK QFE744/0993
TAF AMD UACC 210017Z 2100/2124 18006MPS 3000 BR BKN004 TXM00/2109Z TNM12/2101Z 
     TEMPO 2100/2104 0300 FZFG VV001 
     BECMG 2104/2106 9999 NSW SCT010 BKN100
       
UACK 210200Z 22004MPS CAVOK M03/M04 Q1032 NOSIG RMK QFE750/1000
UACP 210200Z 22005MPS CAVOK M02/M03 Q1030 NOSIG RMK QFE759/1013
UADD 210200Z 00000MPS 5000 BR NSC M07/M07 Q1026 R13/0///65 NOSIG RMK QFE712/0949
TAF UADD 202300Z 2100/2109 16003G08MPS 3000 BR BKN010 OVC050 
     TEMPO 2100/2106 0300 FZFG VV002
       
UAII 210200Z 13003MPS 8000 NSC 00/M06 Q1023 R10/0///70 NOSIG RMK QFE732/0976
TAF UAII 202300Z 2100/2124 08005MPS 6000 BKN100 TX15/2109Z TNM01/2101Z 
     TEMPO 2100/2103 12004MPS 3000 BR FU 
     TEMPO 2104/2112 03006MPS 
     TEMPO 2113/2124 12004MPS 2000 BR FU
       
UAKD 210200Z 06003MPS 7000 NSC M13/M14 Q1032 R04/0///65 NOSIG RMK QFE740/0987
UAKK 210200Z 10002MPS CAVOK M20/M22 Q1035 R05/890540 NOSIG RMK QFE728/0971
TAF UAKK 202300Z 2100/2124 VRB02MPS 3000 BR SCT005 SCT020 TXM01/2109Z TNM15/2123Z 
     TEMPO 2100/2104 0400 FZFG VV002 
     BECMG 2104/2106 9999 NSW SCT015 BKN100 
     TEMPO 2106/2112 18006MPS
       
UAOO 210200Z 05003MPS CAVOK M04/M06 Q1026 R05/CLRD70 NOSIG RMK QFE758/1010
TAF UAOO 202300Z 2100/2109 07008MPS CAVOK
       
UARR 210200Z 13006MPS CAVOK 03/M02 Q1014 R22/CLRD70 NOSIG RMK QFE757/1010
TAF UARR 202304Z 2100/2109 13005G10MPS 9999 BKN010 BKN020CB 
     TEMPO 2100/2104 2000 -SHRA BR BKN007
       
UASK 210200Z VRB01MPS 5000 BR NSC M10/M11 Q1039 R12/190055 TEMPO 3000 BR RMK QFE753/1005
TAF UASK 202302Z 2100/2109 13004MPS 5000 BR BKN020 BKN100 
     TEMPO 2100/2104 1000 -SN BR SCT004 
     BECMG 2105/2106 9999 NSW SCT030 SCT100
       
UASP 210200Z 23005MPS 9999 SCT032CB BKN140 M04/M06 Q1036 R21/710155 NOSIG RMK QFE765/1021
TAF COR UASP 202300Z 2100/2109 24008MPS 9999 BKN007 OVC020CB 
     TEMPO 2100/2104 23004MPS 2000 BR FU BKN004
       
UASS 210200Z 13002MPS 9999 SCT010 BKN030 M09/M10 Q1039 NOSIG RMK QFE761/1015
UATE 210200Z 16003MPS 9999 OVC012 12/10 Q1008 R12/0///70 NOSIG RMK QFE754/1006
TAF UATE 202303Z 2100/2124 VRB02MPS 9999 BKN007 TX16/2109Z TN08/2102Z 
     TEMPO 2100/2104 2000 BR BKN002 
     BECMG 2107/2109 15006G12MPS BKN033
       
UATG 210200Z 13008MPS 9999 BKN036 06/01 Q1009 R14/CLRD70 NOSIG RMK QFE759/1012
TAF UATG 202303Z 2100/2124 11008G13MPS 9999 BKN030CB TX09/2111Z TN04/2103Z 
     BECMG 2105/2107 14007MPS
       
UATT 210200Z 13004MPS CAVOK M01/M04 Q1021 R13/0///60 NOSIG RMK QFE746/0995
TAF UATT 202300Z 2100/2124 12005MPS 9999 SCT020 TX05/2110Z TNM00/2100Z 
     TEMPO 2100/2106 13010MPS 3000 BR BKN010 
     TEMPO 2106/2118 14012MPS
       
UAUU 210200Z 17004MPS CAVOK M07/M07 Q1029 R15/CLRD60 NOSIG RMK QFE755/1007
TAF UAUU 202300Z 2100/2109 17005MPS 6000 SCT006 BKN010CB 
     TEMPO 2100/2105 2000 BR 
     TEMPO 2106/2109 16009MPS